Time;durP1;ratioP1;P1;durP2;ratioP2;P2;SDS_P1;SDS_P2;PMS_P1;PMS_P2;Temp;Humidity;BMP_temperature;BMP_pressure;BME280_temperature;BME280_humidity;BME280_pressure;Samples;Min_cycle;Max_cycle;Signal;HPM_P1;HPM_P2
2022/11/08 00:01:59;;;;;;;12.40;3.15;;;13.80;99.90;;;;;;5081466;28;20043;-77
2022/11/08 00:04:25;;;;;;;10.85;2.20;;;13.70;99.90;;;;;;5091375;28;20020;-78
2022/11/08 00:15:05;;;;;;;13.88;2.40;;;13.50;99.90;;;;;;5086197;28;20030;-76
2022/11/08 00:17:31;;;;;;;11.00;2.53;;;13.40;99.90;;;;;;5091699;28;20361;-76
2022/11/08 00:19:57;;;;;;;9.77;2.78;;;13.40;99.90;;;;;;5086724;28;20016;-76
2022/11/08 00:22:23;;;;;;;10.95;2.53;;;13.30;99.90;;;;;;5090092;28;20017;-76
2022/11/08 00:24:50;;;;;;;10.57;2.80;;;13.30;99.90;;;;;;5089760;28;20449;-77
2022/11/08 00:27:18;;;;;;;8.18;2.33;;;13.30;99.90;;;;;;5091034;28;20016;-76
2022/11/08 00:29:44;;;;;;;11.68;2.30;;;13.30;99.90;;;;;;5091273;28;20027;-77
2022/11/08 00:32:12;;;;;;;6.63;2.10;;;13.20;99.90;;;;;;5089724;28;20091;-76
2022/11/08 00:34:38;;;;;;;7.97;2.30;;;13.20;99.90;;;;;;5094461;28;20022;-76
2022/11/08 00:37:04;;;;;;;10.00;2.30;;;13.10;99.90;;;;;;5094189;28;20024;-76
2022/11/08 00:39:30;;;;;;;17.25;2.95;;;13.10;99.90;;;;;;5095418;28;20098;-75
2022/11/08 00:41:56;;;;;;;5.70;2.03;;;13.10;99.90;;;;;;5094969;28;20087;-76
2022/11/08 00:44:21;;;;;;;4.90;1.58;;;13.10;99.90;;;;;;5088265;28;20055;-76
2022/11/08 00:46:47;;;;;;;8.40;2.90;;;13.00;99.90;;;;;;5091525;28;20016;-76
2022/11/08 00:49:13;;;;;;;10.85;1.83;;;13.00;99.90;;;;;;5093213;28;20089;-76
2022/11/08 00:51:38;;;;;;;5.95;1.83;;;13.00;99.90;;;;;;5089579;28;20024;-75
2022/11/08 00:54:05;;;;;;;8.20;2.40;;;13.00;99.90;;;;;;5089676;28;20031;-76
2022/11/08 00:56:31;;;;;;;10.93;2.95;;;13.00;99.90;;;;;;5095798;28;20051;-76
2022/11/08 00:58:58;;;;;;;8.68;1.98;;;12.90;99.90;;;;;;5084694;28;20028;-76
2022/11/08 01:01:24;;;;;;;7.55;1.88;;;12.90;99.90;;;;;;5079088;28;20345;-76
2022/11/08 01:03:50;;;;;;;9.27;2.10;;;12.90;99.90;;;;;;5095235;28;20020;-76
2022/11/08 01:06:19;;;;;;;7.35;2.03;;;12.90;99.90;;;;;;5091783;28;20371;-76
2022/11/08 01:08:45;;;;;;;10.25;2.03;;;12.90;99.90;;;;;;5084645;28;20044;-77
2022/11/08 01:11:14;;;;;;;9.68;2.40;;;12.90;99.90;;;;;;5095509;28;20383;-75
2022/11/08 01:13:40;;;;;;;11.18;2.20;;;12.80;99.90;;;;;;5095618;28;20051;-75
2022/11/08 01:16:08;;;;;;;10.25;2.28;;;12.80;99.90;;;;;;5095114;28;20016;-75
2022/11/08 01:18:34;;;;;;;9.18;2.28;;;12.80;99.90;;;;;;5089777;28;20102;-76
2022/11/08 01:21:02;;;;;;;8.40;2.78;;;12.80;99.90;;;;;;5097584;28;20433;-76
2022/11/08 01:23:27;;;;;;;13.57;2.20;;;12.80;99.90;;;;;;5087192;28;20020;-76
2022/11/08 01:25:53;;;;;;;9.20;2.25;;;12.80;99.90;;;;;;5090205;28;20421;-76
2022/11/08 01:28:18;;;;;;;11.55;2.38;;;12.70;99.90;;;;;;5095159;28;20435;-76
2022/11/08 01:30:45;;;;;;;9.80;2.92;;;12.80;99.90;;;;;;5089330;28;20448;-78
2022/11/08 01:33:11;;;;;;;7.82;2.25;;;12.70;99.90;;;;;;5087829;28;20016;-76
2022/11/08 01:35:36;;;;;;;8.82;2.15;;;12.70;99.90;;;;;;5086813;28;20410;-76
2022/11/08 01:38:03;;;;;;;11.23;2.50;;;12.70;99.90;;;;;;5089024;28;20069;-76
2022/11/08 01:40:30;;;;;;;6.05;2.30;;;12.70;99.90;;;;;;5084503;28;20025;-76
2022/11/08 01:42:56;;;;;;;7.65;2.53;;;12.70;99.90;;;;;;5085569;28;20123;-76
2022/11/08 01:45:59;;;;;;;9.52;3.30;;;12.70;99.90;;;;;;5089531;28;20428;-75
2022/11/08 01:48:26;;;;;;;6.72;1.90;;;12.70;99.90;;;;;;5091881;28;20510;-76
2022/11/08 01:50:55;;;;;;;9.93;2.40;;;12.70;99.90;;;;;;5089084;28;20081;-76
2022/11/08 01:53:21;;;;;;;11.90;2.88;;;12.70;99.90;;;;;;5083201;28;20446;-76
2022/11/08 01:55:47;;;;;;;8.95;2.78;;;12.70;99.90;;;;;;5089811;28;20024;-75
2022/11/08 01:58:17;;;;;;;12.73;2.90;;;12.70;99.90;;;;;;5094479;28;20030;-77
2022/11/08 02:00:42;;;;;;;9.07;2.53;;;12.70;99.90;;;;;;5093828;28;20024;-77
2022/11/08 02:03:12;;;;;;;8.38;2.35;;;12.60;99.90;;;;;;5094832;28;20020;-76
2022/11/08 02:05:38;;;;;;;7.45;2.08;;;12.60;99.90;;;;;;5078581;28;20020;-76
2022/11/08 02:08:06;;;;;;;7.82;2.40;;;12.60;99.90;;;;;;5092050;28;20024;-76
2022/11/08 02:10:42;;;;;;;8.25;2.10;;;12.60;99.90;;;;;;5092131;28;20068;-76
2022/11/08 02:13:12;;;;;;;6.07;1.95;;;12.60;99.90;;;;;;5087826;28;20127;-76
2022/11/08 02:15:38;;;;;;;8.10;2.15;;;12.60;99.90;;;;;;5094779;28;20032;-75
2022/11/08 02:18:04;;;;;;;11.20;2.72;;;12.60;99.90;;;;;;5094445;28;20024;-76
2022/11/08 02:20:31;;;;;;;8.10;2.08;;;12.50;99.90;;;;;;5094200;28;20463;-76
2022/11/08 02:23:10;;;;;;;6.68;2.78;;;12.50;99.90;;;;;;5094843;28;20016;-76
2022/11/08 02:25:36;;;;;;;9.75;2.13;;;12.40;99.90;;;;;;5087524;28;20028;-76
2022/11/08 02:28:02;;;;;;;11.70;2.85;;;12.40;99.90;;;;;;5084903;28;20028;-76
2022/11/08 02:30:35;;;;;;;15.63;2.55;;;12.30;99.90;;;;;;5091152;28;20373;-77
2022/11/08 02:33:16;;;;;;;6.25;2.47;;;12.30;99.90;;;;;;5090624;28;20166;-77
2022/11/08 02:35:43;;;;;;;9.65;2.50;;;12.30;99.90;;;;;;5093699;28;20024;-76
2022/11/08 02:38:09;;;;;;;10.10;2.85;;;12.20;99.90;;;;;;5094245;28;20145;-77
2022/11/08 02:40:48;;;;;;;12.73;3.28;;;12.20;99.90;;;;;;5093840;28;20051;-76
2022/11/08 02:43:13;;;;;;;7.93;3.10;;;12.10;99.90;;;;;;5091785;28;20039;-76
2022/11/08 02:45:39;;;;;;;8.35;2.53;;;12.10;99.90;;;;;;5091727;28;20031;-77
2022/11/08 02:48:05;;;;;;;16.27;3.00;;;12.10;99.90;;;;;;5093743;28;20027;-76
2022/11/08 02:50:31;;;;;;;11.52;2.97;;;12.10;99.90;;;;;;5087011;28;20019;-77
2022/11/08 02:52:57;;;;;;;10.77;3.38;;;12.10;99.90;;;;;;5082984;28;20452;-77
2022/11/08 02:55:23;;;;;;;12.57;2.97;;;12.10;99.90;;;;;;5093299;28;20079;-76
2022/11/08 02:57:49;;;;;;;9.98;3.17;;;12.10;99.90;;;;;;5090304;28;20048;-77
2022/11/08 03:00:15;;;;;;;11.32;3.20;;;12.00;99.90;;;;;;5090410;28;20024;-77
2022/11/08 03:02:40;;;;;;;10.13;2.75;;;12.00;99.90;;;;;;5091293;28;20028;-77
2022/11/08 03:05:06;;;;;;;12.70;3.08;;;12.00;99.90;;;;;;5091862;28;20030;-77
2022/11/08 03:07:32;;;;;;;12.27;3.05;;;11.90;99.90;;;;;;5091176;28;20081;-77
2022/11/08 03:09:57;;;;;;;12.57;2.80;;;11.90;99.90;;;;;;5088524;28;20456;-77
2022/11/08 03:12:23;;;;;;;12.80;3.30;;;11.90;99.90;;;;;;5087946;28;20107;-76
2022/11/08 03:14:49;;;;;;;13.38;3.65;;;11.90;99.90;;;;;;5088898;28;20012;-76
2022/11/08 03:17:14;;;;;;;17.10;3.50;;;11.80;99.90;;;;;;5085433;28;20027;-76
2022/11/08 03:19:40;;;;;;;9.45;3.28;;;11.80;99.90;;;;;;5085884;28;20020;-76
2022/11/08 03:22:05;;;;;;;9.25;3.40;;;11.80;99.90;;;;;;5082083;28;20020;-77
2022/11/08 03:24:32;;;;;;;7.90;3.28;;;11.80;99.90;;;;;;5079782;28;20077;-77
2022/11/08 03:26:58;;;;;;;14.65;3.83;;;11.80;99.90;;;;;;5077901;28;20032;-77
2022/11/08 03:29:24;;;;;;;15.48;3.95;;;11.80;99.90;;;;;;5086579;28;20043;-76
2022/11/08 03:31:49;;;;;;;13.50;4.10;;;11.80;99.90;;;;;;5092828;28;20020;-76
2022/11/08 03:34:15;;;;;;;6.32;3.25;;;11.70;99.90;;;;;;5086686;28;20099;-76
2022/11/08 03:36:41;;;;;;;12.07;3.67;;;11.70;99.90;;;;;;5081764;28;20452;-76
2022/11/08 03:39:06;;;;;;;12.48;3.65;;;11.70;99.90;;;;;;5086732;28;20024;-77
2022/11/08 03:41:32;;;;;;;14.10;3.85;;;11.70;99.90;;;;;;5077297;28;20345;-76
2022/11/08 03:43:57;;;;;;;14.30;3.53;;;11.60;99.90;;;;;;5089992;28;20040;-77
2022/11/08 03:46:23;;;;;;;12.25;3.53;;;11.60;99.90;;;;;;5092832;28;20444;-77
2022/11/08 03:48:48;;;;;;;9.48;3.33;;;11.60;99.90;;;;;;5088834;28;20047;-76
2022/11/08 03:51:14;;;;;;;10.00;3.78;;;11.60;99.90;;;;;;5081451;28;20035;-76
2022/11/08 03:53:40;;;;;;;12.32;4.93;;;11.60;99.90;;;;;;5087639;28;20023;-76
2022/11/08 03:56:06;;;;;;;14.15;3.38;;;11.70;99.90;;;;;;5092355;28;20476;-76
2022/11/08 03:58:31;;;;;;;13.68;4.45;;;11.60;99.90;;;;;;5082446;28;20099;-75
2022/11/08 04:00:57;;;;;;;9.90;3.22;;;11.60;99.90;;;;;;5093103;28;20097;-76
2022/11/08 04:03:22;;;;;;;10.27;3.88;;;11.60;99.90;;;;;;5093597;28;20440;-75
2022/11/08 04:05:48;;;;;;;10.68;3.83;;;11.60;99.90;;;;;;5081384;28;20024;-76
2022/11/08 04:08:13;;;;;;;14.05;3.78;;;11.60;99.90;;;;;;5093595;28;20032;-77
2022/11/08 04:10:39;;;;;;;12.65;3.80;;;11.50;99.90;;;;;;5092358;28;20024;-76
2022/11/08 04:15:54;;;;;;;14.65;3.92;;;11.50;99.90;;;;;;5088876;28;20089;-76
2022/11/08 04:21:20;;;;;;;9.55;3.95;;;11.40;99.90;;;;;;5097291;28;20035;-76
2022/11/08 04:23:48;;;;;;;8.13;3.17;;;11.40;99.90;;;;;;5084957;28;20031;-76
2022/11/08 04:26:14;;;;;;;9.63;3.33;;;11.40;99.90;;;;;;5093348;28;20053;-76
2022/11/08 04:28:40;;;;;;;10.70;3.20;;;11.40;99.90;;;;;;5084042;28;20028;-76
2022/11/08 04:31:12;;;;;;;8.65;3.22;;;11.40;99.90;;;;;;5097348;28;20478;-76
2022/11/08 04:33:38;;;;;;;7.38;3.75;;;11.40;99.90;;;;;;5097396;28;20109;-76
2022/11/08 04:36:07;;;;;;;14.35;3.78;;;11.40;99.90;;;;;;5082073;28;20376;-76
2022/11/08 04:38:33;;;;;;;18.60;4.18;;;11.40;99.90;;;;;;5093782;28;20020;-76
2022/11/08 04:41:04;;;;;;;9.98;3.33;;;11.40;99.90;;;;;;5082315;28;20020;-76
2022/11/08 04:43:30;;;;;;;11.35;3.13;;;11.50;99.90;;;;;;5088232;28;20384;-77
2022/11/08 04:46:07;;;;;;;9.38;3.58;;;11.50;99.90;;;;;;5092591;28;20034;-77
2022/11/08 04:48:33;;;;;;;11.05;3.75;;;11.40;99.90;;;;;;5094951;28;20039;-78
2022/11/08 04:51:14;;;;;;;11.60;3.58;;;11.40;99.90;;;;;;5082400;28;20518;-75
2022/11/08 04:53:40;;;;;;;13.55;3.92;;;11.40;99.90;;;;;;5085570;28;20032;-75
2022/11/08 04:56:11;;;;;;;12.25;3.92;;;11.40;99.90;;;;;;5092204;28;20034;-76
2022/11/08 04:58:42;;;;;;;7.78;3.40;;;11.40;99.90;;;;;;5088784;28;20024;-76
2022/11/08 05:01:10;;;;;;;12.77;3.37;;;11.40;99.90;;;;;;5095694;28;20403;-76
2022/11/08 05:03:36;;;;;;;10.63;3.20;;;11.40;99.90;;;;;;5093263;28;20122;-77
2022/11/08 05:06:13;;;;;;;10.95;3.60;;;11.40;99.90;;;;;;5096727;28;20028;-76
2022/11/08 05:08:39;;;;;;;9.93;3.17;;;11.40;99.90;;;;;;5093282;28;20040;-75
2022/11/08 05:11:07;;;;;;;8.45;2.72;;;11.40;99.90;;;;;;5082896;28;20032;-76
2022/11/08 05:13:33;;;;;;;9.77;3.15;;;11.40;99.90;;;;;;5091903;28;20023;-77
2022/11/08 05:16:23;;;;;;;7.97;2.70;;;11.40;99.90;;;;;;5086707;28;20032;-76
2022/11/08 05:18:49;;;;;;;6.32;3.05;;;11.40;99.90;;;;;;5082734;28;20518;-77
2022/11/08 05:24:04;;;;;;;9.07;3.17;;;11.40;99.90;;;;;;5095984;28;20031;-76
2022/11/08 05:26:33;;;;;;;7.75;2.92;;;11.40;99.90;;;;;;5095909;28;20012;-76
2022/11/08 05:29:05;;;;;;;8.90;2.55;;;11.40;99.90;;;;;;5089130;28;20468;-77
2022/11/08 05:31:30;;;;;;;;;;;11.50;99.90;;;;;;5093207;28;20028;-76
2022/11/08 05:33:56;;;;;;;7.82;2.55;;;11.50;99.90;;;;;;5094853;28;20255;-76
2022/11/08 05:36:22;;;;;;;7.32;2.75;;;11.50;99.90;;;;;;5095352;28;20375;-77
2022/11/08 05:38:47;;;;;;;5.00;1.85;;;11.50;99.90;;;;;;5095036;28;20031;-76
2022/11/08 05:41:18;;;;;;;5.70;2.50;;;11.50;99.90;;;;;;5093833;28;20020;-77
2022/11/08 05:43:52;;;;;;;8.95;3.03;;;11.60;99.90;;;;;;5096198;28;20349;-76
2022/11/08 05:46:19;;;;;;;7.68;2.80;;;11.60;99.90;;;;;;5077097;28;20107;-76
2022/11/08 05:48:45;;;;;;;8.75;2.58;;;11.60;99.90;;;;;;5075212;28;20602;-76
2022/11/08 05:51:12;;;;;;;4.93;2.85;;;11.60;99.90;;;;;;5081917;28;20478;-76
2022/11/08 05:53:39;;;;;;;10.43;3.65;;;11.70;99.90;;;;;;5093525;28;20111;-76
2022/11/08 05:56:04;;;;;;;6.10;2.40;;;11.70;99.90;;;;;;5082142;28;20024;-76
2022/11/08 05:58:32;;;;;;;6.28;2.50;;;11.70;99.90;;;;;;5095610;28;20085;-76
2022/11/08 06:00:59;;;;;;;11.32;2.72;;;11.70;99.90;;;;;;5076733;28;20095;-75
2022/11/08 06:03:25;;;;;;;8.27;2.70;;;11.70;99.90;;;;;;5095796;28;20027;-77
2022/11/08 06:05:50;;;;;;;10.57;2.83;;;11.70;99.90;;;;;;5094942;28;20054;-75
2022/11/08 06:08:16;;;;;;;7.18;2.78;;;11.70;99.90;;;;;;5095461;28;20044;-76
2022/11/08 06:10:41;;;;;;;7.68;3.90;;;11.70;99.90;;;;;;5095610;28;20031;-77
2022/11/08 06:13:07;;;;;;;8.73;2.50;;;11.70;99.90;;;;;;5095196;28;20053;-76
2022/11/08 06:15:32;;;;;;;7.75;2.30;;;11.70;99.90;;;;;;5095679;28;20035;-77
2022/11/08 06:18:02;;;;;;;8.73;3.10;;;11.70;99.90;;;;;;5095789;28;20016;-76
2022/11/08 06:20:27;;;;;;;7.78;2.38;;;11.70;99.90;;;;;;5095186;28;20456;-76
2022/11/08 06:22:54;;;;;;;7.57;3.33;;;11.70;99.90;;;;;;5095444;28;20242;-75
2022/11/08 06:25:20;;;;;;;5.95;2.33;;;11.70;99.90;;;;;;5095301;28;20008;-77
2022/11/08 06:27:45;;;;;;;8.43;2.80;;;11.70;99.90;;;;;;5094963;28;20475;-76
2022/11/08 06:30:11;;;;;;;7.63;2.72;;;11.70;99.90;;;;;;5094778;28;20470;-76
2022/11/08 06:32:37;;;;;;;6.72;2.10;;;11.70;99.90;;;;;;5094474;28;20012;-77
2022/11/08 06:35:03;;;;;;;5.68;2.17;;;11.60;99.90;;;;;;5094851;28;20024;-77
2022/11/08 06:37:28;;;;;;;9.35;2.83;;;11.60;99.90;;;;;;5094839;28;20066;-76
2022/11/08 06:39:54;;;;;;;3.25;1.67;;;11.60;99.90;;;;;;5089918;28;20116;-76
2022/11/08 06:42:19;;;;;;;7.78;2.20;;;11.60;99.90;;;;;;5094169;28;20558;-76
2022/11/08 06:44:45;;;;;;;5.15;1.88;;;11.60;99.90;;;;;;5094889;28;20031;-77
2022/11/08 06:47:11;;;;;;;3.53;1.73;;;11.60;99.90;;;;;;5094599;28;20016;-76
2022/11/08 06:49:37;;;;;;;10.90;2.17;;;11.60;99.90;;;;;;5094627;28;20121;-77
2022/11/08 06:52:02;;;;;;;7.38;2.25;;;11.60;99.90;;;;;;5094819;28;20455;-76
2022/11/08 06:54:28;;;;;;;8.23;2.10;;;11.60;99.90;;;;;;5094777;28;20024;-77
2022/11/08 06:56:54;;;;;;;5.80;2.42;;;11.60;99.90;;;;;;5081387;28;20017;-76
2022/11/08 06:59:21;;;;;;;5.78;2.13;;;11.60;99.90;;;;;;5086996;28;20047;-77
2022/11/08 07:01:47;;;;;;;8.63;2.53;;;11.60;99.90;;;;;;5094363;28;20290;-77
2022/11/08 07:04:13;;;;;;;4.68;2.03;;;11.60;99.90;;;;;;5094248;28;20439;-77
2022/11/08 07:06:38;;;;;;;3.70;1.80;;;11.70;99.90;;;;;;5094198;28;20088;-75
2022/11/08 07:09:04;;;;;;;3.58;1.73;;;11.70;99.90;;;;;;5089862;28;20024;-77
2022/11/08 07:11:29;;;;;;;4.95;2.10;;;11.70;99.90;;;;;;5091686;28;20024;-76
2022/11/08 07:13:55;;;;;;;5.82;2.20;;;11.70;99.90;;;;;;5088253;28;20028;-77
2022/11/08 07:16:20;;;;;;;4.63;2.13;;;11.70;99.90;;;;;;5093878;28;20406;-76
2022/11/08 07:18:46;;;;;;;6.82;2.35;;;11.70;99.90;;;;;;5093739;28;20023;-76
2022/11/08 07:21:11;;;;;;;5.70;2.38;;;11.80;99.90;;;;;;5093331;28;20426;-75
2022/11/08 07:23:37;;;;;;;6.60;2.03;;;11.80;99.90;;;;;;5093551;28;20447;-76
2022/11/08 07:26:04;;;;;;;5.45;1.92;;;11.80;99.90;;;;;;5075874;28;20021;-76
2022/11/08 07:28:30;;;;;;;5.22;2.05;;;11.90;99.90;;;;;;5073334;28;20031;-76
2022/11/08 07:31:03;;;;;;;9.80;2.17;;;11.90;99.90;;;;;;5073581;28;20464;-75
2022/11/08 07:33:29;;;;;;;4.40;2.20;;;11.90;99.90;;;;;;5073210;28;20041;-76
2022/11/08 07:35:55;;;;;;;9.65;1.50;;;12.00;99.90;;;;;;5089208;28;20024;-75
2022/11/08 07:38:22;;;;;;;4.78;1.75;;;12.00;99.90;;;;;;5093664;28;20084;-76
2022/11/08 07:40:47;;;;;;;4.50;1.63;;;12.10;99.90;;;;;;5093168;28;20482;-76
2022/11/08 07:43:13;;;;;;;7.32;2.30;;;12.10;99.90;;;;;;5080968;28;20044;-76
2022/11/08 07:45:40;;;;;;;5.45;1.92;;;12.20;99.90;;;;;;5086986;28;20028;-76
2022/11/08 07:48:09;;;;;;;6.47;1.60;;;12.20;99.90;;;;;;5082176;28;20036;-76
2022/11/08 07:50:35;;;;;;;3.92;1.70;;;12.20;99.90;;;;;;5073717;28;20024;-76
2022/11/08 07:53:00;;;;;;;3.83;1.75;;;12.30;99.90;;;;;;5090526;28;20024;-76
2022/11/08 07:55:26;;;;;;;4.35;2.15;;;12.30;99.90;;;;;;5093681;28;20020;-76
2022/11/08 07:57:57;;;;;;;7.47;2.03;;;12.30;99.90;;;;;;5094017;28;20053;-75
2022/11/08 08:00:23;;;;;;;2.67;1.35;;;12.40;99.90;;;;;;5092801;28;20117;-76
2022/11/08 08:02:48;;;;;;;4.47;1.90;;;12.40;99.90;;;;;;5093228;28;20050;-76
2022/11/08 08:05:14;;;;;;;6.32;2.10;;;12.50;99.90;;;;;;5093385;28;20042;-75
2022/11/08 08:07:39;;;;;;;4.60;2.00;;;12.50;99.90;;;;;;5092808;28;20020;-75
2022/11/08 08:10:05;;;;;;;8.77;2.30;;;12.60;99.90;;;;;;5089391;28;20020;-76
2022/11/08 08:12:31;;;;;;;4.18;1.55;;;12.60;99.90;;;;;;5092920;28;20026;-75
2022/11/08 08:14:56;;;;;;;6.55;1.83;;;12.70;99.90;;;;;;5093116;28;20028;-75
2022/11/08 08:17:22;;;;;;;6.70;1.60;;;12.70;99.90;;;;;;5093589;28;20095;-75
2022/11/08 08:19:47;;;;;;;3.10;1.70;;;12.70;99.90;;;;;;5091560;28;20066;-76
2022/11/08 08:22:13;;;;;;;5.90;1.77;;;12.80;99.90;;;;;;5092925;28;20020;-76
2022/11/08 08:24:39;;;;;;;6.57;1.80;;;12.80;99.90;;;;;;5092839;28;20025;-76
2022/11/08 08:27:04;;;;;;;8.95;2.38;;;12.80;99.90;;;;;;5092420;28;20377;-76
2022/11/08 08:29:30;;;;;;;5.72;1.70;;;12.80;99.90;;;;;;5093137;28;20111;-76
2022/11/08 08:31:55;;;;;;;11.30;2.80;;;12.90;99.90;;;;;;5093375;28;20345;-76
2022/11/08 08:34:21;;;;;;;5.97;2.03;;;12.90;99.90;;;;;;5092139;28;20448;-76
2022/11/08 08:36:46;;;;;;;2.85;1.60;;;12.80;99.90;;;;;;5092888;28;20058;-76
2022/11/08 08:39:12;;;;;;;8.45;2.13;;;12.80;99.90;;;;;;5092634;28;20024;-76
2022/11/08 08:41:38;;;;;;;6.80;1.60;;;12.90;99.90;;;;;;5093014;28;20119;-76
2022/11/08 08:44:03;;;;;;;8.10;1.65;;;12.90;99.90;;;;;;5093359;28;20047;-76
2022/11/08 08:46:29;;;;;;;3.60;1.85;;;12.90;99.90;;;;;;5091982;28;20036;-76
2022/11/08 08:48:54;;;;;;;3.67;1.55;;;12.90;99.90;;;;;;5080729;28;20051;-75
2022/11/08 08:51:20;;;;;;;4.82;1.73;;;13.00;99.90;;;;;;5092070;28;20020;-76
2022/11/08 08:53:45;;;;;;;3.72;1.80;;;13.10;99.90;;;;;;5094378;28;20032;-76
2022/11/08 08:56:11;;;;;;;4.93;1.73;;;13.20;99.90;;;;;;5096820;28;20069;-76
2022/11/08 08:58:36;;;;;;;3.42;1.83;;;13.30;99.90;;;;;;5096986;28;20059;-76
2022/11/08 09:01:04;;;;;;;6.70;2.10;;;13.30;99.90;;;;;;5096552;28;20375;-76
2022/11/08 09:03:30;;;;;;;4.43;1.40;;;13.30;99.90;;;;;;5096398;28;20027;-76
2022/11/08 09:05:57;;;;;;;5.07;1.67;;;13.40;99.90;;;;;;5095637;28;20085;-76
2022/11/08 09:08:23;;;;;;;2.17;1.45;;;13.40;99.90;;;;;;5095828;28;20038;-77
2022/11/08 09:10:57;;;;;;;4.38;1.58;;;13.50;99.90;;;;;;5095600;28;20489;-77
2022/11/08 09:13:25;;;;;;;3.20;1.63;;;13.60;99.90;;;;;;5096701;28;20111;-77
2022/11/08 09:15:51;;;;;;;5.20;2.20;;;13.60;99.90;;;;;;5097143;28;20028;-77
2022/11/08 09:18:17;;;;;;;4.40;2.45;;;13.70;99.90;;;;;;5095109;28;20024;-77
2022/11/08 09:20:43;;;;;;;4.10;1.50;;;13.80;99.90;;;;;;5095961;28;20489;-77
2022/11/08 09:23:10;;;;;;;3.88;1.77;;;13.80;99.90;;;;;;5096234;28;20081;-76
2022/11/08 09:25:36;;;;;;;8.35;2.03;;;13.80;99.90;;;;;;5095739;28;20031;-77
2022/11/08 09:28:02;;;;;;;5.80;1.80;;;13.70;99.90;;;;;;5096370;28;20047;-77
2022/11/08 09:30:28;;;;;;;2.47;1.42;;;13.70;99.90;;;;;;5096007;28;20020;-77
2022/11/08 09:32:54;;;;;;;3.13;1.30;;;13.70;99.90;;;;;;5095919;28;20020;-77
2022/11/08 09:35:20;;;;;;;2.92;1.48;;;13.70;99.90;;;;;;5095575;28;20368;-76
2022/11/08 09:37:45;;;;;;;2.83;1.38;;;13.80;99.90;;;;;;5096187;28;20054;-77
2022/11/08 09:40:20;;;;;;;3.15;1.60;;;13.90;99.90;;;;;;5095202;28;20448;-77
2022/11/08 09:43:11;;;;;;;4.03;1.95;;;13.90;99.90;;;;;;5095622;28;20102;-76
2022/11/08 09:45:48;;;;;;;3.95;1.70;;;14.10;99.90;;;;;;5095072;28;20114;-76
2022/11/08 09:48:25;;;;;;;2.55;1.42;;;14.20;99.90;;;;;;5096436;28;20032;-77
2022/11/08 09:50:53;;;;;;;3.90;1.25;;;14.20;99.90;;;;;;5092777;28;20032;-77
2022/11/08 09:53:26;;;;;;;4.28;1.77;;;14.30;99.90;;;;;;5087068;28;20095;-76
2022/11/08 09:56:04;;;;;;;5.65;1.85;;;14.30;99.90;;;;;;5095575;28;20028;-77
2022/11/08 09:58:40;;;;;;;7.03;2.00;;;14.20;99.90;;;;;;5094643;28;20035;-77
2022/11/08 10:01:11;;;;;;;3.65;1.50;;;14.30;99.90;;;;;;5093905;28;20068;-77
2022/11/08 10:03:37;;;;;;;4.72;1.45;;;14.40;99.90;;;;;;5094984;28;20089;-77
2022/11/08 10:06:05;;;;;;;2.50;1.40;;;14.50;99.90;;;;;;5095582;28;20337;-77
2022/11/08 10:08:38;;;;;;;4.57;1.50;;;14.60;99.90;;;;;;5095375;28;20173;-77
2022/11/08 10:11:22;;;;;;;2.08;1.45;;;14.70;99.90;;;;;;5095711;28;20120;-77
2022/11/08 10:13:56;;;;;;;5.60;1.90;;;14.90;99.90;;;;;;5081393;28;20460;-76
2022/11/08 10:16:33;;;;;;;7.15;2.15;;;15.00;99.90;;;;;;5094757;28;20023;-76
2022/11/08 10:19:02;;;;;;;5.30;1.50;;;15.10;99.90;;;;;;5094844;28;20111;-76
2022/11/08 10:21:33;;;;;;;5.57;1.77;;;15.20;99.90;;;;;;5095100;28;20102;-76
2022/11/08 10:24:08;;;;;;;4.97;2.05;;;15.10;99.90;;;;;;5094687;28;20047;-76
2022/11/08 10:26:41;;;;;;;3.92;1.50;;;15.20;99.90;;;;;;5094747;28;20020;-75
2022/11/08 10:29:14;;;;;;;5.65;1.90;;;15.20;99.90;;;;;;5095016;28;20417;-76
2022/11/08 10:31:41;;;;;;;3.13;1.70;;;15.20;99.90;;;;;;5095180;28;20016;-75
2022/11/08 10:34:22;;;;;;;6.03;1.92;;;15.20;99.90;;;;;;5094901;28;20027;-75
2022/11/08 10:36:53;;;;;;;4.63;1.98;;;15.20;99.90;;;;;;5094308;28;20039;-75
2022/11/08 10:39:25;;;;;;;4.78;1.90;;;15.30;99.90;;;;;;5095284;28;20024;-75
2022/11/08 10:42:12;;;;;;;3.47;1.70;;;15.50;99.90;;;;;;5094709;28;20038;-74
2022/11/08 10:44:40;;;;;;;6.65;1.45;;;15.60;99.90;;;;;;5094517;28;20027;-75
2022/11/08 10:47:12;;;;;;;2.55;1.23;;;15.60;99.90;;;;;;5094476;28;20024;-75
2022/11/08 10:49:40;;;;;;;6.00;1.80;;;15.50;99.90;;;;;;5094430;28;20517;-75
2022/11/08 10:52:11;;;;;;;3.83;1.35;;;15.40;99.90;;;;;;5093859;28;20111;-75
2022/11/08 10:54:39;;;;;;;4.53;1.60;;;15.40;99.90;;;;;;5077556;28;20024;-75
2022/11/08 10:57:05;;;;;;;2.60;1.45;;;15.40;99.90;;;;;;5091158;28;20098;-75
2022/11/08 10:59:32;;;;;;;3.85;1.58;;;15.40;99.90;;;;;;5091493;28;20027;-75
2022/11/08 11:01:58;;;;;;;3.05;1.50;;;15.30;99.90;;;;;;5093751;28;20126;-75
2022/11/08 11:04:31;;;;;;;6.03;1.63;;;15.30;99.90;;;;;;5092643;28;20028;-75
2022/11/08 11:07:28;;;;;;;4.75;1.90;;;15.20;99.90;;;;;;5093631;28;20027;-75
2022/11/08 11:09:54;;;;;;;4.53;1.48;;;15.20;99.90;;;;;;5094130;28;20032;-75
2022/11/08 11:12:20;;;;;;;2.95;1.77;;;15.30;99.90;;;;;;5094645;28;20023;-75
2022/11/08 11:14:54;;;;;;;10.38;1.90;;;15.50;99.90;;;;;;5080515;28;20028;-75
2022/11/08 11:17:28;;;;;;;6.57;2.15;;;15.70;99.90;;;;;;5072704;28;20028;-75
2022/11/08 11:19:56;;;;;;;5.80;1.50;;;15.90;99.90;;;;;;5086874;28;20047;-74
2022/11/08 11:22:49;;;;;;;4.75;1.65;;;16.00;99.90;;;;;;5091114;28;20024;-75
2022/11/08 11:25:18;;;;;;;3.63;1.30;;;16.30;99.90;;;;;;5090152;28;20052;-76
2022/11/08 11:27:53;;;;;;;5.47;1.38;;;16.60;99.90;;;;;;5093644;28;20056;-75
2022/11/08 11:30:34;;;;;;;6.38;1.83;;;16.70;99.90;;;;;;5080974;28;20025;-75
2022/11/08 11:33:10;;;;;;;5.78;1.85;;;16.70;99.90;;;;;;5094626;28;20125;-75
2022/11/08 11:35:50;;;;;;;2.67;1.25;;;17.00;99.90;;;;;;5086867;28;20107;-76
2022/11/08 11:38:38;;;;;;;6.03;1.58;;;17.10;99.90;;;;;;5089510;28;20024;-75
2022/11/08 11:41:13;;;;;;;4.38;1.30;;;17.20;99.90;;;;;;5091387;28;20451;-76
2022/11/08 11:43:53;;;;;;;2.85;1.38;;;17.20;99.90;;;;;;5093903;28;20123;-75
2022/11/08 11:46:31;;;;;;;4.50;1.75;;;17.20;99.90;;;;;;5093889;28;20016;-75
2022/11/08 11:49:03;;;;;;;3.35;1.40;;;17.30;99.90;;;;;;5093719;28;20031;-75
2022/11/08 11:51:29;;;;;;;2.95;1.25;;;17.40;99.90;;;;;;5093240;28;20022;-75
2022/11/08 11:53:56;;;;;;;9.18;3.13;;;17.50;99.90;;;;;;5092716;28;20066;-75
2022/11/08 11:56:37;;;;;;;4.53;1.92;;;17.70;99.90;;;;;;5093225;28;20468;-75
2022/11/08 11:59:21;;;;;;;3.95;1.17;;;17.80;99.90;;;;;;5092373;28;20455;-76
2022/11/08 12:02:24;;;;;;;3.53;1.90;;;17.70;99.90;;;;;;5092730;28;20082;-76
2022/11/08 12:05:17;;;;;;;3.72;1.60;;;17.60;99.90;;;;;;5090368;28;20016;-76
2022/11/08 12:08:06;;;;;;;6.22;2.65;;;17.50;99.90;;;;;;5093309;28;20020;-76
2022/11/08 12:10:50;;;;;;;7.63;2.30;;;17.50;99.90;;;;;;5083382;28;20119;-76
2022/11/08 12:13:35;;;;;;;5.72;2.25;;;17.80;99.90;;;;;;5086580;28;20059;-76
2022/11/08 12:16:29;;;;;;;6.00;2.05;;;17.90;99.90;;;;;;5094021;28;20027;-76
2022/11/08 12:19:15;;;;;;;3.53;1.75;;;18.00;99.90;;;;;;5093362;28;20111;-76
2022/11/08 12:21:43;;;;;;;11.25;3.13;;;18.00;99.90;;;;;;5086341;28;20016;-76
2022/11/08 12:24:26;;;;;;;3.97;1.90;;;18.20;99.90;;;;;;5086529;28;20078;-76
2022/11/08 12:27:01;;;;;;;7.57;2.42;;;18.30;99.90;;;;;;5092066;28;20337;-77
2022/11/08 12:29:27;;;;;;;7.53;2.47;;;18.10;99.90;;;;;;5090765;28;20463;-76
2022/11/08 12:32:08;;;;;;;4.38;2.38;;;18.00;99.90;;;;;;5087486;28;20027;-77
2022/11/08 12:35:18;;;;;;;15.52;7.05;;;18.00;99.90;;;;;;5097139;28;20026;-76
2022/11/08 12:38:00;;;;;;;5.82;2.53;;;17.60;99.90;;;;;;5071903;28;20424;-76
2022/11/08 12:40:38;;;;;;;4.75;1.77;;;17.30;99.90;;;;;;5073731;28;20443;-76
2022/11/08 12:43:31;;;;;;;10.38;3.78;;;17.10;99.90;;;;;;5089062;28;20051;-77
2022/11/08 12:46:17;;;;;;;4.32;1.92;;;17.10;99.90;;;;;;5097034;28;20074;-76
2022/11/08 12:48:55;;;;;;;7.15;2.65;;;17.00;99.90;;;;;;5095729;28;20466;-76
2022/11/08 12:52:02;;;;;;;6.88;2.10;;;16.80;99.90;;;;;;5096238;28;20402;-76
2022/11/08 12:54:37;;;;;;;6.78;2.25;;;16.80;99.90;;;;;;5089619;28;20109;-76
2022/11/08 12:57:15;;;;;;;6.38;2.35;;;16.60;99.90;;;;;;5096837;28;20116;-76
2022/11/08 12:59:47;;;;;;;6.50;1.63;;;16.50;99.90;;;;;;5097046;28;20087;-76
2022/11/08 13:02:19;;;;;;;12.45;4.75;;;16.50;99.90;;;;;;5096355;28;20420;-76
2022/11/08 13:05:00;;;;;;;7.22;2.28;;;16.40;99.90;;;;;;5096322;28;20060;-76
2022/11/08 13:07:33;;;;;;;5.13;1.70;;;16.40;99.90;;;;;;5079683;28;20028;-76
2022/11/08 13:10:29;;;;;;;10.88;2.55;;;16.40;99.90;;;;;;5090600;28;20032;-76
2022/11/08 13:13:15;;;;;;;8.13;2.90;;;16.30;99.90;;;;;;5074487;28;20028;-77
2022/11/08 13:16:19;;;;;;;16.38;5.82;;;16.30;99.90;;;;;;5095556;28;20020;-77